createdAt,value
2017-04-20T00:00:15.294Z,87.24
2017-04-20T00:01:10.369Z,87.26
2017-04-20T00:02:04.356Z,87.28
2017-04-20T00:03:04.348Z,87.32
2017-04-20T00:04:04.381Z,87.33
2017-04-20T00:04:59.368Z,87.35
2017-04-20T00:05:53.418Z,87.36
2017-04-20T00:06:53.498Z,87.40
2017-04-20T00:07:48.503Z,87.40
2017-04-20T00:08:43.577Z,87.45
2017-04-20T00:09:44.566Z,87.54
2017-04-20T00:10:45.485Z,87.61
2017-04-20T00:11:40.557Z,87.65
2017-04-20T00:12:40.603Z,87.70
2017-04-20T00:13:40.662Z,87.72
2017-04-20T00:14:40.610Z,87.73
2017-04-20T00:15:35.722Z,87.73
2017-04-20T00:16:30.694Z,87.74
2017-04-20T00:17:30.738Z,87.79
2017-04-20T00:18:25.788Z,87.84
2017-04-20T00:19:20.751Z,87.83
2017-04-20T00:20:20.786Z,87.83
2017-04-20T00:21:15.820Z,87.87
2017-04-20T00:22:10.821Z,87.86
2017-04-20T00:23:11.858Z,87.90
2017-04-20T00:24:11.846Z,87.93
2017-04-20T00:25:11.909Z,87.96
2017-04-20T00:26:11.874Z,87.98
2017-04-20T00:27:12.941Z,88.00
2017-04-20T00:28:13.942Z,88.03
2017-04-20T00:29:08.324Z,88.02
2017-04-20T00:30:07.963Z,88.01
2017-04-20T00:31:03.022Z,88.02
2017-04-20T00:32:03.059Z,88.05
2017-04-20T00:33:03.076Z,88.09
2017-04-20T00:34:03.069Z,88.08
2017-04-20T00:34:57.077Z,88.08
2017-04-20T00:35:57.186Z,88.08
2017-04-20T00:36:52.219Z,88.10
2017-04-20T00:37:47.178Z,88.11
2017-04-20T00:38:47.148Z,88.14
2017-04-20T00:39:42.197Z,88.14
2017-04-20T00:40:37.298Z,88.17
2017-04-20T00:41:38.256Z,88.17
2017-04-20T00:42:38.481Z,88.19
2017-04-20T00:43:33.302Z,88.17
2017-04-20T00:44:33.366Z,88.18
2017-04-20T00:45:27.378Z,88.20
2017-04-20T00:46:27.397Z,88.19
2017-04-20T00:47:22.411Z,88.19
2017-04-20T00:48:17.516Z,88.19
2017-04-20T00:49:17.479Z,88.16
2017-04-20T00:50:12.475Z,88.18
2017-04-20T00:51:07.540Z,88.22
2017-04-20T00:52:07.504Z,88.21
2017-04-20T00:53:02.570Z,88.21
2017-04-20T00:53:57.638Z,88.24
2017-04-20T00:54:58.693Z,88.30
2017-04-20T00:55:58.583Z,88.34
2017-04-20T00:56:58.684Z,88.35
2017-04-20T00:57:53.698Z,88.37
2017-04-20T00:58:47.675Z,88.36
2017-04-20T00:59:47.763Z,88.40
2017-04-20T01:00:42.802Z,88.43
2017-04-20T01:01:42.946Z,88.48
2017-04-20T01:02:36.794Z,88.49
2017-04-20T01:03:37.820Z,88.50
2017-04-20T01:04:38.909Z,88.53
2017-04-20T01:05:33.866Z,88.58
2017-04-20T01:06:27.884Z,88.61
2017-04-20T01:07:27.911Z,88.62
2017-04-20T01:08:22.970Z,88.61
2017-04-20T01:09:22.946Z,88.66
2017-04-20T01:10:23.048Z,88.65
2017-04-20T01:11:28.970Z,88.69
2017-04-20T01:12:29.027Z,88.73
2017-04-20T01:13:29.024Z,88.75
2017-04-20T01:14:29.057Z,88.77
2017-04-20T01:15:23.086Z,88.76
2017-04-20T01:16:23.243Z,88.80
2017-04-20T01:17:18.167Z,88.80
2017-04-20T01:18:13.201Z,88.82
2017-04-20T01:19:14.180Z,88.85
2017-04-20T01:20:14.198Z,88.86
2017-04-20T01:21:09.253Z,88.91
2017-04-20T01:22:09.290Z,88.95
2017-04-20T01:23:03.284Z,88.94
2017-04-20T01:24:04.316Z,88.92
2017-04-20T01:25:05.335Z,88.96
2017-04-20T01:26:05.362Z,88.93
2017-04-20T01:27:05.394Z,88.94
2017-04-20T01:28:00.697Z,88.95
2017-04-20T01:28:54.407Z,89.00
2017-04-20T01:29:54.469Z,89.01
2017-04-20T01:30:49.456Z,89.03
2017-04-20T01:31:44.492Z,89.08
2017-04-20T01:32:45.478Z,89.13
2017-04-20T01:33:45.541Z,89.13
2017-04-20T01:34:45.523Z,89.13
2017-04-20T01:35:40.604Z,89.17
2017-04-20T01:36:34.610Z,89.17
2017-04-20T01:37:34.604Z,89.18
2017-04-20T01:38:29.664Z,89.21
2017-04-20T01:39:29.634Z,89.22
2017-04-20T01:40:23.704Z,89.20
2017-04-20T01:41:23.696Z,89.21
2017-04-20T01:42:18.821Z,89.19
2017-04-20T01:43:13.776Z,89.19
2017-04-20T01:44:13.800Z,89.19
2017-04-20T01:45:08.892Z,89.22
2017-04-20T01:46:03.884Z,89.24
2017-04-20T01:47:04.865Z,89.22
2017-04-20T01:48:04.888Z,89.23
2017-04-20T01:49:04.906Z,89.22
2017-04-20T01:49:59.958Z,89.22
2017-04-20T01:50:54.004Z,89.26
2017-04-20T01:51:53.946Z,89.30
2017-04-20T01:52:48.987Z,89.30
2017-04-20T01:53:49.020Z,89.36
2017-04-20T01:54:43.032Z,89.38
2017-04-20T01:55:44.316Z,89.38
2017-04-20T01:56:45.088Z,89.38
2017-04-20T01:57:40.240Z,89.40
2017-04-20T01:58:34.117Z,89.38
2017-04-20T01:59:34.248Z,89.38
2017-04-20T02:00:29.216Z,89.38
2017-04-20T02:01:29.236Z,89.35
2017-04-20T02:02:23.581Z,89.33
2017-04-20T02:03:23.280Z,89.34
2017-04-20T02:04:18.365Z,89.33
2017-04-20T02:05:13.297Z,89.34
2017-04-20T02:06:13.302Z,89.35
2017-04-20T02:07:08.494Z,89.40
2017-04-20T02:08:03.422Z,89.42
2017-04-20T02:09:03.394Z,89.46
2017-04-20T02:09:58.393Z,89.47
2017-04-20T02:10:53.427Z,89.51
2017-04-20T02:11:54.469Z,89.52
2017-04-20T02:12:55.484Z,89.53
2017-04-20T02:13:50.553Z,89.54
2017-04-20T02:14:44.545Z,89.53
2017-04-20T02:15:44.626Z,89.54
2017-04-20T02:16:44.586Z,89.56
2017-04-20T02:17:39.629Z,89.56
2017-04-20T02:18:33.658Z,89.59
2017-04-20T02:19:33.667Z,89.59
2017-04-20T02:20:28.685Z,89.58
2017-04-20T02:21:23.739Z,89.60
2017-04-20T02:22:29.708Z,89.59
2017-04-20T02:23:23.758Z,89.67
2017-04-20T02:24:23.776Z,89.72
2017-04-20T02:25:18.817Z,89.73
2017-04-20T02:26:18.847Z,89.72
2017-04-20T02:27:12.869Z,89.73
2017-04-20T02:28:12.874Z,89.72
2017-04-20T02:29:07.969Z,89.72
2017-04-20T02:30:02.894Z,89.75
2017-04-20T02:31:02.937Z,89.74
2017-04-20T02:31:58.383Z,89.77
2017-04-20T02:32:53.010Z,89.79
2017-04-20T02:33:53.014Z,89.81
2017-04-20T02:34:48.064Z,89.82
2017-04-20T02:35:43.015Z,89.83
2017-04-20T02:36:44.290Z,89.83
2017-04-20T02:37:44.084Z,89.83
2017-04-20T02:38:44.122Z,89.85
2017-04-20T02:39:39.141Z,89.90
2017-04-20T02:40:33.149Z,89.90
2017-04-20T02:41:33.154Z,89.96
2017-04-20T02:42:28.178Z,89.99
2017-04-20T02:43:34.195Z,90.00
2017-04-20T02:44:29.231Z,89.99
2017-04-20T02:45:23.302Z,89.99
2017-04-20T02:46:23.295Z,90.04
2017-04-20T02:47:23.294Z,90.05
2017-04-20T02:48:18.375Z,90.03
2017-04-20T02:49:12.395Z,90.10
2017-04-20T02:50:13.398Z,90.10
2017-04-20T02:51:13.412Z,90.15
2017-04-20T02:52:08.393Z,90.19
2017-04-20T02:53:08.437Z,90.20
2017-04-20T02:54:02.508Z,90.29
2017-04-20T02:55:02.533Z,90.34
2017-04-20T02:55:57.535Z,90.33
2017-04-20T02:56:52.573Z,90.32
2017-04-20T02:57:52.767Z,90.36
2017-04-20T02:58:47.617Z,90.36
2017-04-20T02:59:42.582Z,90.36
2017-04-20T03:00:42.657Z,90.41
2017-04-20T03:01:37.683Z,90.44
2017-04-20T03:02:32.682Z,90.52
2017-04-20T03:03:33.656Z,90.52
2017-04-20T03:04:34.721Z,90.54
2017-04-20T03:05:29.762Z,90.54
2017-04-20T03:06:23.810Z,90.55
2017-04-20T03:07:23.800Z,90.54
2017-04-20T03:08:23.788Z,90.54
2017-04-20T03:09:18.832Z,90.53
2017-04-20T03:10:12.891Z,90.57
2017-04-20T03:11:12.974Z,90.62
2017-04-20T03:12:07.901Z,90.66
2017-04-20T03:13:02.969Z,90.69
2017-04-20T03:14:03.982Z,90.68
2017-04-20T03:15:04.299Z,90.70
2017-04-20T03:16:04.088Z,90.75
2017-04-20T03:16:59.033Z,90.76
2017-04-20T03:17:59.018Z,90.76
2017-04-20T03:18:59.072Z,90.73
2017-04-20T03:19:53.097Z,90.72
2017-04-20T03:20:53.086Z,90.70
2017-04-20T03:21:48.121Z,90.72
2017-04-20T03:22:48.419Z,90.74
2017-04-20T03:23:42.194Z,90.75
2017-04-20T03:24:42.196Z,90.78
2017-04-20T03:25:37.210Z,90.77
2017-04-20T03:26:32.271Z,90.78
2017-04-20T03:27:32.276Z,90.74
2017-04-20T03:28:27.803Z,90.72
2017-04-20T03:29:22.373Z,90.73
2017-04-20T03:30:23.367Z,90.72
2017-04-20T03:31:23.370Z,90.77
2017-04-20T03:32:23.390Z,90.78
2017-04-20T03:33:18.408Z,90.79
2017-04-20T03:34:12.716Z,90.79
2017-04-20T03:35:12.759Z,90.82
2017-04-20T03:36:07.459Z,90.81
2017-04-20T03:37:07.480Z,90.81
2017-04-20T03:38:01.529Z,90.82
2017-04-20T03:39:01.529Z,90.82
2017-04-20T03:39:56.597Z,90.83
2017-04-20T03:40:51.833Z,90.80
2017-04-20T03:41:51.594Z,90.81
2017-04-20T03:42:46.649Z,90.82
2017-04-20T03:43:41.664Z,90.82
2017-04-20T03:44:47.706Z,90.83
2017-04-20T03:45:41.817Z,90.80
2017-04-20T03:46:41.699Z,90.81
2017-04-20T03:47:36.709Z,90.81
2017-04-20T03:48:36.806Z,90.81
2017-04-20T03:49:30.763Z,90.80
2017-04-20T03:50:30.790Z,90.80
2017-04-20T03:51:25.863Z,90.76
2017-04-20T03:52:20.891Z,90.76
2017-04-20T03:53:21.066Z,90.75
2017-04-20T03:54:15.900Z,90.74
2017-04-20T03:55:10.886Z,90.70
2017-04-20T03:56:10.934Z,90.73
2017-04-20T03:57:05.961Z,90.75
2017-04-20T03:58:00.974Z,90.77
2017-04-20T03:59:01.976Z,90.82
2017-04-20T04:00:03.015Z,90.80
2017-04-20T04:00:58.081Z,90.80
2017-04-20T04:01:52.135Z,90.77
2017-04-20T04:02:52.147Z,90.81
2017-04-20T04:03:47.182Z,90.81
2017-04-20T04:04:42.355Z,90.81
2017-04-20T04:05:43.166Z,90.81
2017-04-20T04:06:43.183Z,90.82
2017-04-20T04:07:43.215Z,90.79
2017-04-20T04:08:43.293Z,90.79
2017-04-20T04:09:43.253Z,90.79
2017-04-20T04:10:44.266Z,90.83
2017-04-20T04:11:39.288Z,90.83
2017-04-20T04:12:39.489Z,90.82
2017-04-20T04:13:39.349Z,90.81
2017-04-20T04:14:33.438Z,90.81
2017-04-20T04:15:34.368Z,90.82
2017-04-20T04:16:29.397Z,90.86
2017-04-20T04:17:29.413Z,90.87
2017-04-20T04:18:35.462Z,90.91
2017-04-20T04:19:30.503Z,90.89
2017-04-20T04:20:24.548Z,90.88
2017-04-20T04:21:25.563Z,90.90
2017-04-20T04:22:26.576Z,90.90
2017-04-20T04:23:21.565Z,90.91
2017-04-20T04:24:21.965Z,90.93
2017-04-20T04:25:21.621Z,90.97
2017-04-20T04:26:21.646Z,90.96
2017-04-20T04:27:22.046Z,90.97
2017-04-20T04:28:21.672Z,90.97
2017-04-20T04:29:21.993Z,90.95
2017-04-20T04:30:21.702Z,90.95
2017-04-20T04:31:21.750Z,90.98
2017-04-20T04:32:21.774Z,91.03
2017-04-20T04:33:21.796Z,91.09
2017-04-20T04:34:22.150Z,91.10
2017-04-20T04:35:21.810Z,91.10
2017-04-20T04:36:21.910Z,91.12
2017-04-20T04:37:21.936Z,91.12
2017-04-20T04:38:21.884Z,91.13
2017-04-20T04:39:22.258Z,91.19
2017-04-20T04:40:22.017Z,91.22
2017-04-20T04:41:21.963Z,91.23
2017-04-20T04:42:21.977Z,91.29
2017-04-20T04:43:22.092Z,91.28
2017-04-20T04:44:22.092Z,91.28
2017-04-20T04:45:22.027Z,91.31
2017-04-20T04:46:22.121Z,91.30
2017-04-20T04:47:22.154Z,91.34
2017-04-20T04:48:22.095Z,91.35
2017-04-20T04:49:22.464Z,91.41
2017-04-20T04:50:22.123Z,91.41
2017-04-20T04:51:22.158Z,91.40
2017-04-20T04:52:22.176Z,91.42
2017-04-20T04:53:22.370Z,91.45
2017-04-20T04:54:22.645Z,91.48
2017-04-20T04:55:22.524Z,91.50
2017-04-20T04:56:22.322Z,91.54
2017-04-20T04:57:28.300Z,91.55
2017-04-20T04:58:23.311Z,91.54
2017-04-20T04:59:17.358Z,91.60
2017-04-20T05:00:17.440Z,91.60
2017-04-20T05:01:12.365Z,91.65
2017-04-20T05:02:07.395Z,91.71
2017-04-20T05:03:07.420Z,91.79
2017-04-20T05:04:02.470Z,91.87
2017-04-20T05:05:02.443Z,91.97
2017-04-20T05:06:03.506Z,92.13
2017-04-20T05:07:04.516Z,92.25
2017-04-20T05:07:58.506Z,92.25
2017-04-20T05:08:58.583Z,92.41
2017-04-20T05:09:53.591Z,92.48
2017-04-20T05:10:48.597Z,92.58
2017-04-20T05:11:42.660Z,92.74
2017-04-20T05:12:42.942Z,92.83
2017-04-20T05:13:37.695Z,92.93
2017-04-20T05:14:32.730Z,93.02
2017-04-20T05:15:32.739Z,93.09
2017-04-20T05:16:27.782Z,93.13
2017-04-20T05:17:22.778Z,93.13
2017-04-20T05:18:16.899Z,93.09
2017-04-20T05:19:17.883Z,93.04
2017-04-20T05:20:12.893Z,92.95
2017-04-20T05:21:12.919Z,92.80
2017-04-20T05:22:12.921Z,92.62
2017-04-20T05:23:12.950Z,92.31
2017-04-20T05:24:12.996Z,91.92
2017-04-20T05:25:12.985Z,91.30
2017-04-20T05:26:13.221Z,90.59
2017-04-20T05:27:13.081Z,89.75
2017-04-20T05:28:13.150Z,88.77
2017-04-20T05:29:13.272Z,87.83
2017-04-20T05:30:13.235Z,86.16
2017-04-20T05:31:13.178Z,84.82
2017-04-20T05:32:19.252Z,83.78
2017-04-20T05:33:13.286Z,83.05
2017-04-20T05:34:07.255Z,82.40
2017-04-20T05:35:07.333Z,81.06
2017-04-20T05:35:56.299Z,79.79
2017-04-20T05:36:50.362Z,78.78
2017-04-20T05:37:50.404Z,78.27
2017-04-20T05:38:44.568Z,78.44
2017-04-20T05:39:38.487Z,77.83
2017-04-20T05:40:27.570Z,77.07
2017-04-20T05:41:22.516Z,75.80
2017-04-20T05:42:28.514Z,74.60
2017-04-20T05:43:17.723Z,74.41
2017-04-20T05:44:11.622Z,73.63
2017-04-20T05:45:05.627Z,72.80
2017-04-20T05:45:59.683Z,72.73
2017-04-20T05:46:59.770Z,70.87
2017-04-20T05:47:54.737Z,69.45
2017-04-20T05:48:48.795Z,68.25
2017-04-20T05:49:48.815Z,67.54
2017-04-20T05:50:42.805Z,67.59
2017-04-20T05:51:36.886Z,67.30
2017-04-20T05:52:30.885Z,66.86
2017-04-20T05:53:25.972Z,66.29
2017-04-20T05:54:25.990Z,66.89
2017-04-20T05:55:20.006Z,68.61
2017-04-20T05:56:15.070Z,69.57
2017-04-20T05:57:09.093Z,68.50
2017-04-20T05:58:04.271Z,67.52
2017-04-20T05:58:53.498Z,65.97
2017-04-20T05:59:48.198Z,64.85
2017-04-20T06:00:48.426Z,63.48
2017-04-20T06:01:43.492Z,61.98
2017-04-20T06:02:37.437Z,61.66
2017-04-20T06:03:32.387Z,61.48
2017-04-20T06:04:27.383Z,61.43
2017-04-20T06:05:21.380Z,60.35
2017-04-20T06:06:15.406Z,59.40
2017-04-20T06:07:10.472Z,58.19
2017-04-20T06:07:59.486Z,58.47
2017-04-20T06:08:54.031Z,57.93
2017-04-20T06:09:59.597Z,57.80
2017-04-20T06:10:53.611Z,59.00
2017-04-20T06:11:48.614Z,59.87
2017-04-20T06:12:42.708Z,60.31
2017-04-20T06:13:36.717Z,62.28
2017-04-20T06:14:30.798Z,62.61
2017-04-20T06:15:24.811Z,60.60
2017-04-20T06:16:25.856Z,59.83
2017-04-20T06:17:20.050Z,59.98
2017-04-20T06:18:14.915Z,59.68
2017-04-20T06:19:14.948Z,60.46
2017-04-20T06:20:10.075Z,60.59
2017-04-20T06:20:58.026Z,59.96
2017-04-20T06:21:58.113Z,59.99
2017-04-20T06:22:53.108Z,61.83
2017-04-20T06:23:41.158Z,64.23
2017-04-20T06:24:29.238Z,64.03
2017-04-20T06:25:23.293Z,61.08
2017-04-20T06:26:11.302Z,61.20
2017-04-20T06:27:00.350Z,63.27
2017-04-20T06:27:48.419Z,61.49
2017-04-20T06:28:36.413Z,57.58
2017-04-20T06:29:25.824Z,56.44
2017-04-20T06:30:14.524Z,55.11
2017-04-20T06:31:02.622Z,53.47
2017-04-20T06:31:50.586Z,53.01
2017-04-20T06:32:38.617Z,54.59
2017-04-20T06:33:33.733Z,54.18
2017-04-20T06:34:27.746Z,55.21
2017-04-20T06:35:22.786Z,55.06
2017-04-20T06:36:10.901Z,54.16
2017-04-20T06:36:58.888Z,51.78
2017-04-20T06:37:47.996Z,50.72
2017-04-20T06:38:36.961Z,50.68
2017-04-20T06:39:32.024Z,49.23
2017-04-20T06:40:26.055Z,50.65
2017-04-20T06:41:21.353Z,49.38
2017-04-20T06:42:15.186Z,48.29
2017-04-20T06:43:04.194Z,47.88
2017-04-20T06:44:04.228Z,49.37
2017-04-20T06:44:58.298Z,50.19
2017-04-20T06:45:46.483Z,48.58
2017-04-20T06:46:34.392Z,47.89
2017-04-20T06:47:29.413Z,46.89
2017-04-20T06:48:29.426Z,50.46
2017-04-20T06:49:17.493Z,48.61
2017-04-20T06:50:06.508Z,48.95
2017-04-20T06:50:54.599Z,50.48
2017-04-20T06:51:42.931Z,50.65
2017-04-20T06:52:43.667Z,51.54
2017-04-20T06:53:31.705Z,50.04
2017-04-20T06:54:20.787Z,51.04
2017-04-20T06:55:09.277Z,50.10
2017-04-20T06:55:56.876Z,49.75
2017-04-20T06:56:50.923Z,55.39
2017-04-20T06:57:50.947Z,51.81
2017-04-20T06:58:45.958Z,50.56
2017-04-20T06:59:41.018Z,49.24
2017-04-20T07:00:30.047Z,49.61
2017-04-20T07:01:24.088Z,50.59
2017-04-20T07:02:18.236Z,49.56
2017-04-20T07:03:07.541Z,51.54
2017-04-20T07:04:01.510Z,51.19
2017-04-20T07:05:01.321Z,49.25
2017-04-20T07:05:55.308Z,47.71
2017-04-20T07:06:43.390Z,48.43
2017-04-20T07:07:32.475Z,47.85
2017-04-20T07:08:26.492Z,46.92
2017-04-20T07:09:26.546Z,46.33
2017-04-20T07:10:15.588Z,46.68
2017-04-20T07:11:09.947Z,49.29
2017-04-20T07:12:09.614Z,48.02
2017-04-20T07:13:05.014Z,48.39
2017-04-20T07:13:59.678Z,46.26
2017-04-20T07:14:59.777Z,48.91
2017-04-20T07:15:54.879Z,46.13
2017-04-20T07:16:49.885Z,44.49
2017-04-20T07:17:43.917Z,48.70
2017-04-20T07:18:45.392Z,47.97
2017-04-20T07:19:39.987Z,44.73
2017-04-20T07:20:34.027Z,44.72
2017-04-20T07:21:28.087Z,43.82
2017-04-20T07:22:23.117Z,43.53
2017-04-20T07:23:17.474Z,43.49
2017-04-20T07:24:06.598Z,44.30
2017-04-20T07:25:01.261Z,45.98
2017-04-20T07:25:50.303Z,49.53
2017-04-20T07:26:44.479Z,48.67
2017-04-20T07:27:33.424Z,48.62
2017-04-20T07:28:21.469Z,46.91
2017-04-20T07:29:21.512Z,47.69
2017-04-20T07:30:16.525Z,47.05
2017-04-20T07:31:05.587Z,50.42
2017-04-20T07:31:53.589Z,47.22
2017-04-20T07:32:42.696Z,46.74
2017-04-20T07:33:36.726Z,49.05
2017-04-20T07:34:31.849Z,46.25
2017-04-20T07:35:26.813Z,47.11
2017-04-20T07:36:15.910Z,47.31
2017-04-20T07:37:15.938Z,48.66
2017-04-20T07:38:09.981Z,47.50
2017-04-20T07:38:58.006Z,48.73
2017-04-20T07:39:52.075Z,46.86
2017-04-20T07:40:41.108Z,45.31
2017-04-20T07:41:36.139Z,46.39
2017-04-20T07:42:31.215Z,48.39
2017-04-20T07:43:31.330Z,47.83
2017-04-20T07:44:26.330Z,49.18
2017-04-20T07:45:14.389Z,47.40
2017-04-20T07:46:03.383Z,47.27
2017-04-20T07:47:03.414Z,45.34
2017-04-20T07:47:52.487Z,44.48
2017-04-20T07:48:52.736Z,47.06
2017-04-20T07:49:41.587Z,46.95
2017-04-20T07:50:35.799Z,48.91
2017-04-20T07:51:29.732Z,48.35
2017-04-20T07:52:23.718Z,48.53
2017-04-20T07:53:11.787Z,47.60
2017-04-20T07:53:59.779Z,47.52
2017-04-20T07:54:48.893Z,47.76
2017-04-20T07:55:44.446Z,48.28
2017-04-20T07:56:44.011Z,46.45
2017-04-20T07:57:33.039Z,49.03
2017-04-20T07:58:33.329Z,47.27
2017-04-20T07:59:33.130Z,44.36
2017-04-20T08:00:28.251Z,44.33
2017-04-20T08:01:17.254Z,44.71
2017-04-20T08:02:06.347Z,44.19
2017-04-20T08:02:55.324Z,48.14
2017-04-20T08:03:44.397Z,44.60
2017-04-20T08:04:38.441Z,46.81
2017-04-20T08:05:38.494Z,42.98
2017-04-20T08:06:38.562Z,41.94
2017-04-20T08:07:33.824Z,41.61
2017-04-20T08:08:27.613Z,41.59
2017-04-20T08:09:16.682Z,41.80
2017-04-20T08:10:11.737Z,42.54
2017-04-20T08:11:06.744Z,42.64
2017-04-20T08:12:08.051Z,43.86
2017-04-20T08:13:01.879Z,43.63
2017-04-20T08:13:49.919Z,46.33
2017-04-20T08:14:44.957Z,44.05
2017-04-20T08:15:40.013Z,44.73
2017-04-20T08:16:35.320Z,44.13
2017-04-20T08:17:35.115Z,43.04
2017-04-20T08:18:29.172Z,42.62
2017-04-20T08:19:18.212Z,41.82
2017-04-20T08:20:07.301Z,42.35
2017-04-20T08:21:01.313Z,42.74
2017-04-20T08:21:56.384Z,42.73
2017-04-20T08:22:51.775Z,44.31
2017-04-20T08:23:40.461Z,45.17
2017-04-20T08:24:29.875Z,43.18
2017-04-20T08:25:24.558Z,44.84
2017-04-20T08:26:13.596Z,43.45
2017-04-20T08:27:13.678Z,45.67
2017-04-20T08:28:09.118Z,43.66
2017-04-20T08:28:58.292Z,42.34
2017-04-20T08:29:46.818Z,42.88
2017-04-20T08:30:35.911Z,42.98
2017-04-20T08:31:25.250Z,47.19
2017-04-20T08:32:19.974Z,45.10
2017-04-20T08:33:20.000Z,43.08
2017-04-20T08:34:09.124Z,43.53
2017-04-20T08:35:03.105Z,40.22
2017-04-20T08:36:03.131Z,42.15
2017-04-20T08:36:57.179Z,42.15
2017-04-20T08:37:57.301Z,43.31
2017-04-20T08:38:51.299Z,44.52
2017-04-20T08:39:45.377Z,43.64
2017-04-20T08:40:39.409Z,41.08
2017-04-20T08:41:33.474Z,41.52
2017-04-20T08:42:27.556Z,40.43
2017-04-20T08:43:16.607Z,40.02
2017-04-20T08:44:17.162Z,42.18
2017-04-20T08:45:10.632Z,39.86
2017-04-20T08:45:58.729Z,39.57
2017-04-20T08:46:46.784Z,40.68
2017-04-20T08:47:41.790Z,40.48
2017-04-20T08:48:36.806Z,39.53
2017-04-20T08:49:30.874Z,39.87
2017-04-20T08:50:24.923Z,38.78
2017-04-20T08:51:19.960Z,39.72
2017-04-20T08:52:15.068Z,39.42
2017-04-20T08:53:09.077Z,39.18
2017-04-20T08:53:58.594Z,39.63
2017-04-20T08:54:47.210Z,40.77
2017-04-20T08:55:41.242Z,40.82
2017-04-20T08:56:29.329Z,39.77
2017-04-20T08:57:23.386Z,39.99
2017-04-20T08:58:18.404Z,41.66
2017-04-20T08:59:13.490Z,39.80
2017-04-20T09:00:08.625Z,40.73
2017-04-20T09:00:57.755Z,39.37
2017-04-20T09:01:46.630Z,39.65
2017-04-20T09:02:35.723Z,41.47
2017-04-20T09:03:29.690Z,39.65
2017-04-20T09:04:23.776Z,39.64
2017-04-20T09:05:18.171Z,40.49
2017-04-20T09:06:13.021Z,39.03
2017-04-20T09:07:06.885Z,37.12
2017-04-20T09:08:07.008Z,38.03
2017-04-20T09:09:00.912Z,39.76
2017-04-20T09:09:56.129Z,41.88
2017-04-20T09:10:45.376Z,41.26
2017-04-20T09:11:39.188Z,37.88
2017-04-20T09:12:33.204Z,38.05
2017-04-20T09:13:27.546Z,39.54
2017-04-20T09:14:21.297Z,38.30
2017-04-20T09:15:15.363Z,39.20
2017-04-20T09:16:10.529Z,40.15
2017-04-20T09:17:04.477Z,40.07
2017-04-20T09:17:58.629Z,40.65
2017-04-20T09:18:58.922Z,38.87
2017-04-20T09:19:58.618Z,39.49
2017-04-20T09:20:53.664Z,40.91
2017-04-20T09:21:42.700Z,40.44
2017-04-20T09:22:37.773Z,43.36
2017-04-20T09:23:32.796Z,42.14
2017-04-20T09:24:32.904Z,39.04
2017-04-20T09:25:21.935Z,40.09
2017-04-20T09:26:11.036Z,42.38
2017-04-20T09:27:00.043Z,41.24
2017-04-20T09:27:49.091Z,39.41
2017-04-20T09:28:43.154Z,36.67
2017-04-20T09:29:37.178Z,38.27
2017-04-20T09:30:37.267Z,37.63
2017-04-20T09:31:37.581Z,38.79
2017-04-20T09:32:31.805Z,40.89
2017-04-20T09:33:20.393Z,40.20
2017-04-20T09:34:15.634Z,40.65
2017-04-20T09:35:09.857Z,40.48
2017-04-20T09:36:09.671Z,39.32
2017-04-20T09:36:58.595Z,39.73
2017-04-20T09:37:53.923Z,39.15
2017-04-20T09:38:48.704Z,40.24
2017-04-20T09:39:42.820Z,38.79
2017-04-20T09:40:36.813Z,39.69
2017-04-20T09:41:30.925Z,39.56
2017-04-20T09:42:19.011Z,39.55
2017-04-20T09:43:13.275Z,41.38
2017-04-20T09:44:13.028Z,41.45
2017-04-20T09:45:02.226Z,40.79
2017-04-20T09:45:57.105Z,40.79
2017-04-20T09:46:51.206Z,40.83
2017-04-20T09:47:45.208Z,39.36
2017-04-20T09:48:39.352Z,39.44
2017-04-20T09:49:28.332Z,39.33
2017-04-20T09:50:22.398Z,39.76
2017-04-20T09:51:16.466Z,39.98
2017-04-20T09:52:10.522Z,37.32
2017-04-20T09:53:04.892Z,36.91
2017-04-20T09:54:05.629Z,39.50
2017-04-20T09:54:54.667Z,36.30
2017-04-20T09:55:48.682Z,38.75
2017-04-20T09:56:42.774Z,37.88
2017-04-20T09:57:36.796Z,37.63
2017-04-20T09:58:25.902Z,38.10
2017-04-20T09:59:25.907Z,38.03
2017-04-20T10:00:19.990Z,37.95
2017-04-20T10:01:14.025Z,38.45
2017-04-20T10:02:14.287Z,40.52
2017-04-20T10:03:08.106Z,37.00
2017-04-20T10:04:02.152Z,38.08
2017-04-20T10:04:51.436Z,39.89
2017-04-20T10:05:45.284Z,39.19
2017-04-20T10:06:45.363Z,39.79
2017-04-20T10:07:40.405Z,39.91
2017-04-20T10:08:35.493Z,38.50
2017-04-20T10:09:35.488Z,39.73
2017-04-20T10:10:29.901Z,38.66
2017-04-20T10:11:29.606Z,35.73
2017-04-20T10:12:23.695Z,37.36
2017-04-20T10:13:23.703Z,38.31
2017-04-20T10:14:17.779Z,34.17
2017-04-20T10:15:05.781Z,35.28
2017-04-20T10:16:06.169Z,34.88
2017-04-20T10:16:53.912Z,38.01
2017-04-20T10:17:41.996Z,35.65
2017-04-20T10:18:31.025Z,35.36
2017-04-20T10:19:25.097Z,35.96
2017-04-20T10:20:13.076Z,37.26
2017-04-20T10:21:08.589Z,39.54
2017-04-20T10:22:03.273Z,36.81
2017-04-20T10:22:57.290Z,36.98
2017-04-20T10:23:46.361Z,38.81
2017-04-20T10:24:41.397Z,39.62
2017-04-20T10:25:35.479Z,37.65
2017-04-20T10:26:29.523Z,38.78
2017-04-20T10:27:29.564Z,36.40
2017-04-20T10:28:23.638Z,38.55
2017-04-20T10:29:12.691Z,41.92
2017-04-20T10:30:07.721Z,37.76
2017-04-20T10:31:01.795Z,36.68
2017-04-20T10:31:55.891Z,38.08
2017-04-20T10:32:44.880Z,38.34
2017-04-20T10:33:39.943Z,36.09
2017-04-20T10:34:40.994Z,34.29
2017-04-20T10:35:35.052Z,33.97
2017-04-20T10:36:23.195Z,34.51
2017-04-20T10:37:17.179Z,34.21
2017-04-20T10:38:05.208Z,33.88
2017-04-20T10:39:00.757Z,36.67
2017-04-20T10:40:52.427Z,36.57
2017-04-20T10:41:46.405Z,35.80
2017-04-20T10:42:46.489Z,37.31
2017-04-20T10:43:35.570Z,37.31
2017-04-20T10:44:29.577Z,36.82
2017-04-20T10:45:18.654Z,37.01
2017-04-20T10:46:06.695Z,35.56
2017-04-20T10:47:01.829Z,35.03
2017-04-20T10:47:55.772Z,37.46
2017-04-20T10:48:55.892Z,38.37
2017-04-20T10:49:50.960Z,36.99
2017-04-20T10:50:44.992Z,37.84
2017-04-20T10:51:39.005Z,36.77
2017-04-20T10:52:28.082Z,34.76
2017-04-20T10:53:22.096Z,38.04
2017-04-20T10:54:22.182Z,35.70
2017-04-20T10:55:17.188Z,39.14
2017-04-20T10:56:05.277Z,37.56
2017-04-20T10:57:05.352Z,36.27
2017-04-20T10:57:54.445Z,37.17
2017-04-20T10:58:48.411Z,35.14
2017-04-20T10:59:43.511Z,37.14
2017-04-20T11:00:37.538Z,35.24
2017-04-20T11:01:31.600Z,39.68
2017-04-20T11:02:26.759Z,36.27
2017-04-20T11:03:20.678Z,35.26
2017-04-20T11:04:14.798Z,36.44
2017-04-20T11:05:09.802Z,37.64
2017-04-20T11:05:58.879Z,39.48
2017-04-20T11:06:47.929Z,38.52
2017-04-20T11:07:42.986Z,36.05
2017-04-20T11:08:37.064Z,35.74
2017-04-20T11:09:31.397Z,35.70
2017-04-20T11:10:26.394Z,36.92
2017-04-20T11:11:20.182Z,36.15
2017-04-20T11:12:20.266Z,36.99
2017-04-20T11:13:09.286Z,36.34
2017-04-20T11:14:04.322Z,38.23
2017-04-20T11:14:58.560Z,38.20
2017-04-20T11:15:53.454Z,35.10
2017-04-20T11:16:42.530Z,34.96
2017-04-20T11:17:30.585Z,34.90
2017-04-20T11:18:25.809Z,36.64
2017-04-20T11:19:14.721Z,38.20
2017-04-20T11:20:14.706Z,36.51
2017-04-20T11:21:09.824Z,35.75
2017-04-20T11:22:09.816Z,37.47
2017-04-20T11:22:58.910Z,35.14
2017-04-20T11:23:53.956Z,35.88
2017-04-20T11:24:53.965Z,35.07
2017-04-20T11:25:48.018Z,37.78
2017-04-20T11:26:37.083Z,34.63
2017-04-20T11:27:26.251Z,34.44
2017-04-20T11:28:20.204Z,32.98
2017-04-20T11:29:14.289Z,36.80
2017-04-20T11:30:08.349Z,35.30
2017-04-20T11:30:57.379Z,36.34
2017-04-20T11:31:46.431Z,34.29
2017-04-20T11:32:40.520Z,35.76
2017-04-20T11:33:34.566Z,34.67
2017-04-20T11:34:28.606Z,34.31
2017-04-20T11:35:17.737Z,34.85
2017-04-20T11:36:11.710Z,34.31
2017-04-20T11:37:05.809Z,37.20
2017-04-20T11:37:59.840Z,37.64
2017-04-20T11:38:49.230Z,36.07
2017-04-20T11:39:37.962Z,35.96
2017-04-20T11:40:32.010Z,37.74
2017-04-20T11:41:21.086Z,35.47
2017-04-20T11:42:15.103Z,35.94
2017-04-20T11:43:04.177Z,37.89
2017-04-20T11:43:58.372Z,37.92
2017-04-20T11:44:58.253Z,35.61
2017-04-20T11:45:52.311Z,34.51
2017-04-20T11:46:46.387Z,34.36
2017-04-20T11:47:41.441Z,37.07
2017-04-20T11:48:35.490Z,36.22
2017-04-20T11:49:23.577Z,36.05
2017-04-20T11:50:17.615Z,33.71
2017-04-20T11:51:06.754Z,33.07
2017-04-20T11:51:55.714Z,33.25
2017-04-20T11:52:55.778Z,37.94
2017-04-20T11:53:44.849Z,35.30
2017-04-20T11:54:44.885Z,36.30
2017-04-20T11:55:38.948Z,36.26